Aeroporto :
LOGIN :

Iscrizione | Disclaimer

   EN    FR    IT 

 










Sommario :    VFR   VFR Marginale   IFR   IFR Intensivo   IFR Molto Intensivo
Visibilità : 
Base nubi : 
>= 8 km
>= 3000ft
5 / 8 km
1000 / 3000 ft
1500m / 5 km
500 / 1000 ft
800 / 1500m
200 / 500 ft
< 800m
< 200 ft
Simboli :   Temporali  Nebbia  Neve Forte  Precipitazioni Forti  Vento > 20 kt
SIGMETs :   Varie  Temporali  Ghiacco  Turbolenza  Onda orograficha  Ceneri Vulcaniche






- Altitudine del aeroporto : 12 ft
- Codice IATA : NCE


LFMN - Nice

ULTIMO METAR :
  • 130900Z 18008KT 9999 FEW015 26/21 Q1010 NOSIG

METARs OBSOLETI :
  • 130830Z 20008KT 9999 FEW015 25/20 Q1010 NOSIG
  • 130800Z 31004KT 270V360 9999 FEW015 27/16 Q1010 NOSIG
  • 130730Z 31004KT 270V350 9999 FEW015 27/16 Q1010 BECMG 18008KT CAVOK
  • 130630Z 32008KT 9999 FEW015 24/16 Q1010 BECMG 18008KT CAVOK
  • 130600Z 33010KT 9999 FEW015 23/17 Q1010 BECMG 18008KT CAVOK
  • 130530Z 33008KT 9999 FEW015 23/17 Q1010 BECMG 18008KT CAVOK
  • 130500Z 33009KT 9999 FEW012 22/17 Q1009 NOSIG
  • 130430Z 33008KT 9999 FEW012 22/18 Q1009 NOSIG

TAF TAF LFMN
Valido dal 13 a 09 ore il 14 a 15 ore UTC


130800Z 1309/1415 18006KT CAVOK
BECMG 1314/1316 09015KT
BECMG 1321/1323 33006KT
BECMG 1407/1409 15010KT
ATIS : +33 4 93 17 21 16



MetMap, La meteo Aeronautica in un colpo d'occhio ! - Copyright ORBIFLY Dicembre 2007 - Disclaimer

ORBIFLY MET'MAP TEAM :

Programmazione e sviluppo : Alexandra Zaïnal
Concezione : Baudouin d'Aumeries
Supporto tecnico e logistico : Manuel Goepfert
Aiuto : Marc-Olivier Méhu
Aiuto per la traduzione : Arnaldo La Scala




FONTI E CREDITI :

   NOAA